KWAL/WAL METAR and TAF weather

Enter ICAO airport designator
Station Type Date Time Source
KWAL METAR 2018/12/10 01:54 UTC NOAA

KWAL 100154Z AUTO 01015G21KT 9SM -RA SCT008 OVC012 04/02 A3008 RMK AO2 SLP182 P0003 T00390017


Station Type Date Time Source
KWAL Decoded METAR 2018/12/10 01:54 UTC NOAA

WALLOPS FLIGHT FAC AIRPORT , VA, United States (KWAL) 37-56N 075-28W 14M
Dec 09, 2018 - 08:54 PM EST / 2018.12.10 0154 UTC
Wind: from the N (010 degrees) at 17 MPH (15 KT) gusting to 24 MPH (21 KT):0
Visibility: 9 mile(s):0
Sky conditions: overcast
Weather: light rain
Precipitation last hour: 0.03 inches
Temperature: 39.0 F (3.9 C)
Dew Point: 35.1 F (1.7 C)
Relative Humidity: 85%
Pressure (altimeter): 30.08 in. Hg (1018 hPa)
ob: KWAL 100154Z AUTO 01015G21KT 9SM -RA SCT008 OVC012 04/02 A3008 RMK AO2 SLP182 P0003 T00390017
cycle: 2

Station Type Date Time Source
KWAL TAF UTC NOAA

Error!


Example: see airport list